sensor_id;sensor_type;location;lat;lon;timestamp;P1;durP1;ratioP1;P2;durP2;ratioP2
64351;SDS011;50680;52.626;-8.668;2023-08-08T00:01:14;4.05;;;2.45;;
64351;SDS011;50680;52.626;-8.668;2023-08-08T00:03:41;4.47;;;2.63;;
64351;SDS011;50680;52.626;-8.668;2023-08-08T00:06:08;4.30;;;2.20;;
64351;SDS011;50680;52.626;-8.668;2023-08-08T00:08:35;4.60;;;2.55;;
64351;SDS011;50680;52.626;-8.668;2023-08-08T00:11:02;3.70;;;2.30;;
64351;SDS011;50680;52.626;-8.668;2023-08-08T00:13:29;2.42;;;2.05;;
64351;SDS011;50680;52.626;-8.668;2023-08-08T00:15:56;2.78;;;2.17;;
64351;SDS011;50680;52.626;-8.668;2023-08-08T00:18:23;3.38;;;2.15;;
64351;SDS011;50680;52.626;-8.668;2023-08-08T00:20:50;4.93;;;2.03;;
64351;SDS011;50680;52.626;-8.668;2023-08-08T00:23:17;2.53;;;2.00;;
64351;SDS011;50680;52.626;-8.668;2023-08-08T00:25:44;4.38;;;2.28;;
64351;SDS011;50680;52.626;-8.668;2023-08-08T00:28:16;6.60;;;2.15;;
64351;SDS011;50680;52.626;-8.668;2023-08-08T00:30:44;2.60;;;1.60;;
64351;SDS011;50680;52.626;-8.668;2023-08-08T00:33:11;3.95;;;1.70;;
64351;SDS011;50680;52.626;-8.668;2023-08-08T00:35:38;2.67;;;1.83;;
64351;SDS011;50680;52.626;-8.668;2023-08-08T00:38:05;2.20;;;2.00;;
64351;SDS011;50680;52.626;-8.668;2023-08-08T00:40:32;2.40;;;2.00;;
64351;SDS011;50680;52.626;-8.668;2023-08-08T00:42:59;5.10;;;2.45;;
64351;SDS011;50680;52.626;-8.668;2023-08-08T00:45:26;5.28;;;2.38;;
64351;SDS011;50680;52.626;-8.668;2023-08-08T00:47:54;2.85;;;2.35;;
64351;SDS011;50680;52.626;-8.668;2023-08-08T00:50:21;4.70;;;2.67;;
64351;SDS011;50680;52.626;-8.668;2023-08-08T00:52:49;4.93;;;2.78;;
64351;SDS011;50680;52.626;-8.668;2023-08-08T00:55:16;5.32;;;2.50;;
64351;SDS011;50680;52.626;-8.668;2023-08-08T00:57:43;3.47;;;2.67;;
64351;SDS011;50680;52.626;-8.668;2023-08-08T01:00:11;3.53;;;2.85;;
64351;SDS011;50680;52.626;-8.668;2023-08-08T01:02:38;4.40;;;2.97;;
64351;SDS011;50680;52.626;-8.668;2023-08-08T01:05:05;5.35;;;2.90;;
64351;SDS011;50680;52.626;-8.668;2023-08-08T01:10:16;5.93;;;3.00;;
64351;SDS011;50680;52.626;-8.668;2023-08-08T01:12:46;6.68;;;4.00;;
64351;SDS011;50680;52.626;-8.668;2023-08-08T01:15:16;7.20;;;3.22;;
64351;SDS011;50680;52.626;-8.668;2023-08-08T01:17:45;5.05;;;3.03;;
64351;SDS011;50680;52.626;-8.668;2023-08-08T01:20:14;4.70;;;3.28;;
64351;SDS011;50680;52.626;-8.668;2023-08-08T01:22:45;5.50;;;3.45;;
64351;SDS011;50680;52.626;-8.668;2023-08-08T01:25:14;3.70;;;2.90;;
64351;SDS011;50680;52.626;-8.668;2023-08-08T01:27:42;5.32;;;3.15;;
64351;SDS011;50680;52.626;-8.668;2023-08-08T01:30:09;4.72;;;3.20;;
64351;SDS011;50680;52.626;-8.668;2023-08-08T01:32:37;2.65;;;2.45;;
64351;SDS011;50680;52.626;-8.668;2023-08-08T01:35:04;5.65;;;2.83;;
64351;SDS011;50680;52.626;-8.668;2023-08-08T01:37:33;4.78;;;2.95;;
64351;SDS011;50680;52.626;-8.668;2023-08-08T01:40:06;4.15;;;2.83;;
64351;SDS011;50680;52.626;-8.668;2023-08-08T01:42:36;6.07;;;2.90;;
64351;SDS011;50680;52.626;-8.668;2023-08-08T01:45:04;3.03;;;2.53;;
64351;SDS011;50680;52.626;-8.668;2023-08-08T01:47:32;3.42;;;2.85;;
64351;SDS011;50680;52.626;-8.668;2023-08-08T01:49:59;4.20;;;3.22;;
64351;SDS011;50680;52.626;-8.668;2023-08-08T01:52:26;8.85;;;2.83;;
64351;SDS011;50680;52.626;-8.668;2023-08-08T01:54:53;5.10;;;2.90;;
64351;SDS011;50680;52.626;-8.668;2023-08-08T01:57:20;5.38;;;3.00;;
64351;SDS011;50680;52.626;-8.668;2023-08-08T01:59:47;6.65;;;2.88;;
64351;SDS011;50680;52.626;-8.668;2023-08-08T02:02:14;4.15;;;2.40;;
64351;SDS011;50680;52.626;-8.668;2023-08-08T02:04:43;6.68;;;2.90;;
64351;SDS011;50680;52.626;-8.668;2023-08-08T02:07:10;4.88;;;2.83;;
64351;SDS011;50680;52.626;-8.668;2023-08-08T02:09:37;6.53;;;3.35;;
64351;SDS011;50680;52.626;-8.668;2023-08-08T02:12:04;5.03;;;3.60;;
64351;SDS011;50680;52.626;-8.668;2023-08-08T02:14:31;5.10;;;2.90;;
64351;SDS011;50680;52.626;-8.668;2023-08-08T02:16:58;6.03;;;3.13;;
64351;SDS011;50680;52.626;-8.668;2023-08-08T02:19:25;4.45;;;2.80;;
64351;SDS011;50680;52.626;-8.668;2023-08-08T02:21:52;4.40;;;2.88;;
64351;SDS011;50680;52.626;-8.668;2023-08-08T02:24:19;3.17;;;2.80;;
64351;SDS011;50680;52.626;-8.668;2023-08-08T02:26:46;3.85;;;2.50;;
64351;SDS011;50680;52.626;-8.668;2023-08-08T02:29:13;3.42;;;2.58;;
64351;SDS011;50680;52.626;-8.668;2023-08-08T02:31:41;5.00;;;2.63;;
64351;SDS011;50680;52.626;-8.668;2023-08-08T02:34:08;3.00;;;2.72;;
64351;SDS011;50680;52.626;-8.668;2023-08-08T02:36:35;3.15;;;2.45;;
64351;SDS011;50680;52.626;-8.668;2023-08-08T02:39:02;3.05;;;2.45;;
64351;SDS011;50680;52.626;-8.668;2023-08-08T02:41:29;4.47;;;2.83;;
64351;SDS011;50680;52.626;-8.668;2023-08-08T02:43:56;2.88;;;2.58;;
64351;SDS011;50680;52.626;-8.668;2023-08-08T02:46:23;4.50;;;2.63;;
64351;SDS011;50680;52.626;-8.668;2023-08-08T02:48:50;2.72;;;2.33;;
64351;SDS011;50680;52.626;-8.668;2023-08-08T02:51:17;3.88;;;2.47;;
64351;SDS011;50680;52.626;-8.668;2023-08-08T02:53:44;4.70;;;2.50;;
64351;SDS011;50680;52.626;-8.668;2023-08-08T02:56:11;4.05;;;2.78;;
64351;SDS011;50680;52.626;-8.668;2023-08-08T02:58:38;5.10;;;2.20;;
64351;SDS011;50680;52.626;-8.668;2023-08-08T03:01:05;5.78;;;2.85;;
64351;SDS011;50680;52.626;-8.668;2023-08-08T03:03:32;4.57;;;2.67;;
64351;SDS011;50680;52.626;-8.668;2023-08-08T03:06:00;3.58;;;2.40;;
64351;SDS011;50680;52.626;-8.668;2023-08-08T03:08:27;2.47;;;2.22;;
64351;SDS011;50680;52.626;-8.668;2023-08-08T03:10:54;3.33;;;2.28;;
64351;SDS011;50680;52.626;-8.668;2023-08-08T03:13:21;5.03;;;2.35;;
64351;SDS011;50680;52.626;-8.668;2023-08-08T03:15:49;5.45;;;1.80;;
64351;SDS011;50680;52.626;-8.668;2023-08-08T03:18:16;4.55;;;2.38;;
64351;SDS011;50680;52.626;-8.668;2023-08-08T03:20:43;3.90;;;2.10;;
64351;SDS011;50680;52.626;-8.668;2023-08-08T03:23:09;6.47;;;2.47;;
64351;SDS011;50680;52.626;-8.668;2023-08-08T03:25:36;3.83;;;2.30;;
64351;SDS011;50680;52.626;-8.668;2023-08-08T03:28:03;3.47;;;2.58;;
64351;SDS011;50680;52.626;-8.668;2023-08-08T03:30:30;2.65;;;2.15;;
64351;SDS011;50680;52.626;-8.668;2023-08-08T03:32:57;2.95;;;2.50;;
64351;SDS011;50680;52.626;-8.668;2023-08-08T03:35:24;5.28;;;2.35;;
64351;SDS011;50680;52.626;-8.668;2023-08-08T03:37:51;4.55;;;2.40;;
64351;SDS011;50680;52.626;-8.668;2023-08-08T03:40:18;3.53;;;2.42;;
64351;SDS011;50680;52.626;-8.668;2023-08-08T03:42:45;2.83;;;2.40;;
64351;SDS011;50680;52.626;-8.668;2023-08-08T03:45:12;3.10;;;2.38;;
64351;SDS011;50680;52.626;-8.668;2023-08-08T03:47:39;2.45;;;2.25;;
64351;SDS011;50680;52.626;-8.668;2023-08-08T03:50:07;3.42;;;2.17;;
64351;SDS011;50680;52.626;-8.668;2023-08-08T03:52:35;5.47;;;2.63;;
64351;SDS011;50680;52.626;-8.668;2023-08-08T03:55:04;3.08;;;2.15;;
64351;SDS011;50680;52.626;-8.668;2023-08-08T03:57:31;3.05;;;2.40;;
64351;SDS011;50680;52.626;-8.668;2023-08-08T03:59:58;4.70;;;2.38;;
64351;SDS011;50680;52.626;-8.668;2023-08-08T04:02:25;2.55;;;2.35;;
64351;SDS011;50680;52.626;-8.668;2023-08-08T04:04:54;2.83;;;2.45;;
64351;SDS011;50680;52.626;-8.668;2023-08-08T04:07:21;2.80;;;2.50;;
64351;SDS011;50680;52.626;-8.668;2023-08-08T04:09:48;5.35;;;2.50;;
64351;SDS011;50680;52.626;-8.668;2023-08-08T04:12:15;3.85;;;2.20;;
64351;SDS011;50680;52.626;-8.668;2023-08-08T04:14:42;4.90;;;1.98;;
64351;SDS011;50680;52.626;-8.668;2023-08-08T04:17:09;2.85;;;2.17;;
64351;SDS011;50680;52.626;-8.668;2023-08-08T04:19:36;3.67;;;1.92;;
64351;SDS011;50680;52.626;-8.668;2023-08-08T04:22:03;3.97;;;1.90;;
64351;SDS011;50680;52.626;-8.668;2023-08-08T04:24:30;6.45;;;2.20;;
64351;SDS011;50680;52.626;-8.668;2023-08-08T04:26:57;4.22;;;2.17;;
64351;SDS011;50680;52.626;-8.668;2023-08-08T04:29:24;5.25;;;2.38;;
64351;SDS011;50680;52.626;-8.668;2023-08-08T04:31:51;3.88;;;2.28;;
64351;SDS011;50680;52.626;-8.668;2023-08-08T04:34:18;3.55;;;2.25;;
64351;SDS011;50680;52.626;-8.668;2023-08-08T04:36:45;4.70;;;2.10;;
64351;SDS011;50680;52.626;-8.668;2023-08-08T04:39:12;4.18;;;2.15;;
64351;SDS011;50680;52.626;-8.668;2023-08-08T04:41:39;4.10;;;2.05;;
64351;SDS011;50680;52.626;-8.668;2023-08-08T04:44:06;5.85;;;2.45;;
64351;SDS011;50680;52.626;-8.668;2023-08-08T04:46:33;3.45;;;1.92;;
64351;SDS011;50680;52.626;-8.668;2023-08-08T04:49:00;4.45;;;2.15;;
64351;SDS011;50680;52.626;-8.668;2023-08-08T04:51:27;3.03;;;1.85;;
64351;SDS011;50680;52.626;-8.668;2023-08-08T04:53:54;3.13;;;1.90;;
64351;SDS011;50680;52.626;-8.668;2023-08-08T04:56:21;3.10;;;2.08;;
64351;SDS011;50680;52.626;-8.668;2023-08-08T04:58:48;4.15;;;1.85;;
64351;SDS011;50680;52.626;-8.668;2023-08-08T05:01:15;3.92;;;2.15;;
64351;SDS011;50680;52.626;-8.668;2023-08-08T05:03:44;4.53;;;2.03;;
64351;SDS011;50680;52.626;-8.668;2023-08-08T05:06:11;5.13;;;3.00;;
64351;SDS011;50680;52.626;-8.668;2023-08-08T05:08:38;3.45;;;2.38;;
64351;SDS011;50680;52.626;-8.668;2023-08-08T05:11:05;5.00;;;2.13;;
64351;SDS011;50680;52.626;-8.668;2023-08-08T05:13:32;3.08;;;1.95;;
64351;SDS011;50680;52.626;-8.668;2023-08-08T05:15:59;2.60;;;2.10;;
64351;SDS011;50680;52.626;-8.668;2023-08-08T05:18:26;4.25;;;2.05;;
64351;SDS011;50680;52.626;-8.668;2023-08-08T05:20:53;3.38;;;1.70;;
64351;SDS011;50680;52.626;-8.668;2023-08-08T05:23:20;3.42;;;1.60;;
64351;SDS011;50680;52.626;-8.668;2023-08-08T05:25:47;2.90;;;2.28;;
64351;SDS011;50680;52.626;-8.668;2023-08-08T05:28:14;2.75;;;2.47;;
64351;SDS011;50680;52.626;-8.668;2023-08-08T05:30:41;2.88;;;2.00;;
64351;SDS011;50680;52.626;-8.668;2023-08-08T05:33:08;3.75;;;1.92;;
64351;SDS011;50680;52.626;-8.668;2023-08-08T05:35:35;2.10;;;1.88;;
64351;SDS011;50680;52.626;-8.668;2023-08-08T05:38:02;9.75;;;3.35;;
64351;SDS011;50680;52.626;-8.668;2023-08-08T05:40:29;3.13;;;1.95;;
64351;SDS011;50680;52.626;-8.668;2023-08-08T05:42:56;5.05;;;1.75;;
64351;SDS011;50680;52.626;-8.668;2023-08-08T05:45:23;2.35;;;2.00;;
64351;SDS011;50680;52.626;-8.668;2023-08-08T05:47:50;3.38;;;2.05;;
64351;SDS011;50680;52.626;-8.668;2023-08-08T05:50:17;2.78;;;1.90;;
64351;SDS011;50680;52.626;-8.668;2023-08-08T05:52:44;3.05;;;1.95;;
64351;SDS011;50680;52.626;-8.668;2023-08-08T05:55:11;3.63;;;2.17;;
64351;SDS011;50680;52.626;-8.668;2023-08-08T05:57:38;3.50;;;1.83;;
64351;SDS011;50680;52.626;-8.668;2023-08-08T06:00:05;2.60;;;2.35;;
64351;SDS011;50680;52.626;-8.668;2023-08-08T06:02:35;2.20;;;2.00;;
64351;SDS011;50680;52.626;-8.668;2023-08-08T06:05:02;2.45;;;1.98;;
64351;SDS011;50680;52.626;-8.668;2023-08-08T06:07:29;3.67;;;2.00;;
64351;SDS011;50680;52.626;-8.668;2023-08-08T06:09:56;2.50;;;2.30;;
64351;SDS011;50680;52.626;-8.668;2023-08-08T06:12:23;3.05;;;2.58;;
64351;SDS011;50680;52.626;-8.668;2023-08-08T06:14:50;2.60;;;2.40;;
64351;SDS011;50680;52.626;-8.668;2023-08-08T06:17:17;3.10;;;2.80;;
64351;SDS011;50680;52.626;-8.668;2023-08-08T06:19:44;5.13;;;2.90;;
64351;SDS011;50680;52.626;-8.668;2023-08-08T06:22:11;4.15;;;3.13;;
64351;SDS011;50680;52.626;-8.668;2023-08-08T06:24:38;3.20;;;2.90;;
64351;SDS011;50680;52.626;-8.668;2023-08-08T06:27:06;5.20;;;3.35;;
64351;SDS011;50680;52.626;-8.668;2023-08-08T06:29:33;3.30;;;3.00;;
64351;SDS011;50680;52.626;-8.668;2023-08-08T06:32:00;4.20;;;3.42;;
64351;SDS011;50680;52.626;-8.668;2023-08-08T06:34:28;5.13;;;3.72;;
64351;SDS011;50680;52.626;-8.668;2023-08-08T06:36:55;4.13;;;3.55;;
64351;SDS011;50680;52.626;-8.668;2023-08-08T06:39:21;4.78;;;3.97;;
64351;SDS011;50680;52.626;-8.668;2023-08-08T06:41:48;5.15;;;3.85;;
64351;SDS011;50680;52.626;-8.668;2023-08-08T06:44:15;5.68;;;4.20;;
64351;SDS011;50680;52.626;-8.668;2023-08-08T06:46:42;6.72;;;4.05;;
64351;SDS011;50680;52.626;-8.668;2023-08-08T06:49:09;5.40;;;4.07;;
64351;SDS011;50680;52.626;-8.668;2023-08-08T06:51:36;6.82;;;4.35;;
64351;SDS011;50680;52.626;-8.668;2023-08-08T06:54:03;9.68;;;3.92;;
64351;SDS011;50680;52.626;-8.668;2023-08-08T06:56:30;6.90;;;4.00;;
64351;SDS011;50680;52.626;-8.668;2023-08-08T06:58:57;5.43;;;3.90;;
64351;SDS011;50680;52.626;-8.668;2023-08-08T07:01:24;6.60;;;4.20;;
64351;SDS011;50680;52.626;-8.668;2023-08-08T07:03:51;8.07;;;4.40;;
64351;SDS011;50680;52.626;-8.668;2023-08-08T07:06:18;6.47;;;4.10;;
64351;SDS011;50680;52.626;-8.668;2023-08-08T07:08:45;6.20;;;3.58;;
64351;SDS011;50680;52.626;-8.668;2023-08-08T07:11:12;6.88;;;3.97;;
64351;SDS011;50680;52.626;-8.668;2023-08-08T07:13:39;6.50;;;3.55;;
64351;SDS011;50680;52.626;-8.668;2023-08-08T07:16:06;7.25;;;3.72;;
64351;SDS011;50680;52.626;-8.668;2023-08-08T07:18:33;6.32;;;3.65;;
64351;SDS011;50680;52.626;-8.668;2023-08-08T07:21:00;6.70;;;3.63;;
64351;SDS011;50680;52.626;-8.668;2023-08-08T07:23:27;6.55;;;3.42;;
64351;SDS011;50680;52.626;-8.668;2023-08-08T07:25:55;5.55;;;3.65;;
64351;SDS011;50680;52.626;-8.668;2023-08-08T07:28:22;7.05;;;3.60;;
64351;SDS011;50680;52.626;-8.668;2023-08-08T07:30:49;6.32;;;3.60;;
64351;SDS011;50680;52.626;-8.668;2023-08-08T07:33:16;9.63;;;3.58;;
64351;SDS011;50680;52.626;-8.668;2023-08-08T07:35:43;10.63;;;3.50;;
64351;SDS011;50680;52.626;-8.668;2023-08-08T07:38:10;4.75;;;3.53;;
64351;SDS011;50680;52.626;-8.668;2023-08-08T07:40:37;8.48;;;3.50;;
64351;SDS011;50680;52.626;-8.668;2023-08-08T07:43:04;4.53;;;3.28;;
64351;SDS011;50680;52.626;-8.668;2023-08-08T07:45:31;6.18;;;3.40;;
64351;SDS011;50680;52.626;-8.668;2023-08-08T07:47:58;4.72;;;4.05;;
64351;SDS011;50680;52.626;-8.668;2023-08-08T07:50:25;5.22;;;3.60;;
64351;SDS011;50680;52.626;-8.668;2023-08-08T07:52:52;9.75;;;3.30;;
64351;SDS011;50680;52.626;-8.668;2023-08-08T07:55:19;5.60;;;3.38;;
64351;SDS011;50680;52.626;-8.668;2023-08-08T07:57:46;4.93;;;3.20;;
64351;SDS011;50680;52.626;-8.668;2023-08-08T08:00:13;6.78;;;3.65;;
64351;SDS011;50680;52.626;-8.668;2023-08-08T08:02:41;4.97;;;2.92;;
64351;SDS011;50680;52.626;-8.668;2023-08-08T08:05:09;5.03;;;3.45;;
64351;SDS011;50680;52.626;-8.668;2023-08-08T08:07:37;6.38;;;3.20;;
64351;SDS011;50680;52.626;-8.668;2023-08-08T08:10:05;5.72;;;3.33;;
64351;SDS011;50680;52.626;-8.668;2023-08-08T08:12:35;4.82;;;2.67;;
64351;SDS011;50680;52.626;-8.668;2023-08-08T08:15:03;7.70;;;2.90;;
64351;SDS011;50680;52.626;-8.668;2023-08-08T08:17:31;3.20;;;2.65;;
64351;SDS011;50680;52.626;-8.668;2023-08-08T08:19:58;3.30;;;3.00;;
64351;SDS011;50680;52.626;-8.668;2023-08-08T08:22:25;4.63;;;2.75;;
64351;SDS011;50680;52.626;-8.668;2023-08-08T08:24:52;4.50;;;2.90;;
64351;SDS011;50680;52.626;-8.668;2023-08-08T08:27:19;5.13;;;2.65;;
64351;SDS011;50680;52.626;-8.668;2023-08-08T08:29:46;3.85;;;2.80;;
64351;SDS011;50680;52.626;-8.668;2023-08-08T08:32:13;4.72;;;3.20;;
64351;SDS011;50680;52.626;-8.668;2023-08-08T08:34:40;4.68;;;2.75;;
64351;SDS011;50680;52.626;-8.668;2023-08-08T08:37:07;5.13;;;2.75;;
64351;SDS011;50680;52.626;-8.668;2023-08-08T08:39:34;4.00;;;2.60;;
64351;SDS011;50680;52.626;-8.668;2023-08-08T08:42:01;5.22;;;2.75;;
64351;SDS011;50680;52.626;-8.668;2023-08-08T08:44:31;4.47;;;2.83;;
64351;SDS011;50680;52.626;-8.668;2023-08-08T08:47:02;6.97;;;2.63;;
64351;SDS011;50680;52.626;-8.668;2023-08-08T08:49:30;4.65;;;2.90;;
64351;SDS011;50680;52.626;-8.668;2023-08-08T08:51:58;5.32;;;2.33;;
64351;SDS011;50680;52.626;-8.668;2023-08-08T08:54:31;3.50;;;2.22;;
64351;SDS011;50680;52.626;-8.668;2023-08-08T08:56:59;5.30;;;2.63;;
64351;SDS011;50680;52.626;-8.668;2023-08-08T08:59:26;6.78;;;2.30;;
64351;SDS011;50680;52.626;-8.668;2023-08-08T09:01:53;10.07;;;2.22;;
64351;SDS011;50680;52.626;-8.668;2023-08-08T09:04:22;2.97;;;1.90;;
64351;SDS011;50680;52.626;-8.668;2023-08-08T09:06:50;2.88;;;2.25;;
64351;SDS011;50680;52.626;-8.668;2023-08-08T09:09:17;6.35;;;2.10;;
64351;SDS011;50680;52.626;-8.668;2023-08-08T09:11:49;3.83;;;2.30;;
64351;SDS011;50680;52.626;-8.668;2023-08-08T09:14:25;4.00;;;2.20;;
64351;SDS011;50680;52.626;-8.668;2023-08-08T09:16:53;2.05;;;1.65;;
64351;SDS011;50680;52.626;-8.668;2023-08-08T09:19:21;2.78;;;1.63;;
64351;SDS011;50680;52.626;-8.668;2023-08-08T09:21:48;4.70;;;1.90;;
64351;SDS011;50680;52.626;-8.668;2023-08-08T09:24:16;2.15;;;1.65;;
64351;SDS011;50680;52.626;-8.668;2023-08-08T09:26:44;2.28;;;1.70;;
64351;SDS011;50680;52.626;-8.668;2023-08-08T09:29:12;3.03;;;1.50;;
64351;SDS011;50680;52.626;-8.668;2023-08-08T09:31:41;3.08;;;1.52;;
64351;SDS011;50680;52.626;-8.668;2023-08-08T09:34:08;5.82;;;1.75;;
64351;SDS011;50680;52.626;-8.668;2023-08-08T09:36:35;1.50;;;1.40;;
64351;SDS011;50680;52.626;-8.668;2023-08-08T09:39:03;2.53;;;1.30;;
64351;SDS011;50680;52.626;-8.668;2023-08-08T09:41:31;1.23;;;1.05;;
64351;SDS011;50680;52.626;-8.668;2023-08-08T09:43:59;2.10;;;1.58;;
64351;SDS011;50680;52.626;-8.668;2023-08-08T09:46:28;2.22;;;1.23;;
64351;SDS011;50680;52.626;-8.668;2023-08-08T09:48:57;3.47;;;1.60;;
64351;SDS011;50680;52.626;-8.668;2023-08-08T09:51:24;2.38;;;1.40;;
64351;SDS011;50680;52.626;-8.668;2023-08-08T09:53:52;2.97;;;1.50;;
64351;SDS011;50680;52.626;-8.668;2023-08-08T09:56:19;2.55;;;1.65;;
64351;SDS011;50680;52.626;-8.668;2023-08-08T09:58:47;1.75;;;1.27;;
64351;SDS011;50680;52.626;-8.668;2023-08-08T10:01:14;3.35;;;1.85;;
64351;SDS011;50680;52.626;-8.668;2023-08-08T10:03:41;3.05;;;1.50;;
64351;SDS011;50680;52.626;-8.668;2023-08-08T10:06:12;1.52;;;1.20;;
64351;SDS011;50680;52.626;-8.668;2023-08-08T10:08:40;2.53;;;1.30;;
64351;SDS011;50680;52.626;-8.668;2023-08-08T10:11:08;3.67;;;1.40;;
64351;SDS011;50680;52.626;-8.668;2023-08-08T10:13:36;2.10;;;1.40;;
64351;SDS011;50680;52.626;-8.668;2023-08-08T10:16:04;1.73;;;1.20;;
64351;SDS011;50680;52.626;-8.668;2023-08-08T10:18:35;1.95;;;1.02;;
64351;SDS011;50680;52.626;-8.668;2023-08-08T10:21:03;1.10;;;1.00;;
64351;SDS011;50680;52.626;-8.668;2023-08-08T10:23:37;4.47;;;1.20;;
64351;SDS011;50680;52.626;-8.668;2023-08-08T10:26:16;2.95;;;1.30;;
64351;SDS011;50680;52.626;-8.668;2023-08-08T10:28:52;9.07;;;1.20;;
64351;SDS011;50680;52.626;-8.668;2023-08-08T10:31:25;2.70;;;0.93;;
64351;SDS011;50680;52.626;-8.668;2023-08-08T10:34:05;2.95;;;1.20;;
64351;SDS011;50680;52.626;-8.668;2023-08-08T10:36:43;1.83;;;0.88;;
64351;SDS011;50680;52.626;-8.668;2023-08-08T10:39:18;2.60;;;0.90;;
64351;SDS011;50680;52.626;-8.668;2023-08-08T10:41:48;1.95;;;0.90;;
64351;SDS011;50680;52.626;-8.668;2023-08-08T10:44:25;2.15;;;0.90;;
64351;SDS011;50680;52.626;-8.668;2023-08-08T10:46:52;4.32;;;1.08;;
64351;SDS011;50680;52.626;-8.668;2023-08-08T10:49:25;1.30;;;1.10;;
64351;SDS011;50680;52.626;-8.668;2023-08-08T10:51:52;3.65;;;1.13;;
64351;SDS011;50680;52.626;-8.668;2023-08-08T10:54:20;1.55;;;1.10;;
64351;SDS011;50680;52.626;-8.668;2023-08-08T10:56:50;1.02;;;1.02;;
64351;SDS011;50680;52.626;-8.668;2023-08-08T10:59:22;1.33;;;0.95;;
64351;SDS011;50680;52.626;-8.668;2023-08-08T11:01:50;0.80;;;0.80;;
64351;SDS011;50680;52.626;-8.668;2023-08-08T11:04:20;3.53;;;1.00;;
64351;SDS011;50680;52.626;-8.668;2023-08-08T11:06:49;1.17;;;1.08;;
64351;SDS011;50680;52.626;-8.668;2023-08-08T11:09:19;3.00;;;0.95;;
64351;SDS011;50680;52.626;-8.668;2023-08-08T11:11:47;1.83;;;0.80;;
64351;SDS011;50680;52.626;-8.668;2023-08-08T11:14:18;1.13;;;1.00;;
64351;SDS011;50680;52.626;-8.668;2023-08-08T11:16:47;1.63;;;1.10;;
64351;SDS011;50680;52.626;-8.668;2023-08-08T11:19:15;3.63;;;1.00;;
64351;SDS011;50680;52.626;-8.668;2023-08-08T11:21:47;0.77;;;0.75;;
64351;SDS011;50680;52.626;-8.668;2023-08-08T11:24:15;1.98;;;1.20;;
64351;SDS011;50680;52.626;-8.668;2023-08-08T11:26:43;2.53;;;0.80;;
64351;SDS011;50680;52.626;-8.668;2023-08-08T11:29:14;2.88;;;0.93;;
64351;SDS011;50680;52.626;-8.668;2023-08-08T11:31:41;2.22;;;0.93;;
64351;SDS011;50680;52.626;-8.668;2023-08-08T11:34:08;0.90;;;0.90;;
64351;SDS011;50680;52.626;-8.668;2023-08-08T11:36:36;0.90;;;0.90;;
64351;SDS011;50680;52.626;-8.668;2023-08-08T11:39:04;1.10;;;0.90;;
64351;SDS011;50680;52.626;-8.668;2023-08-08T11:41:35;2.95;;;0.90;;
64351;SDS011;50680;52.626;-8.668;2023-08-08T11:44:03;1.40;;;0.70;;
64351;SDS011;50680;52.626;-8.668;2023-08-08T11:46:31;1.48;;;0.75;;
64351;SDS011;50680;52.626;-8.668;2023-08-08T11:49:05;3.00;;;0.80;;
64351;SDS011;50680;52.626;-8.668;2023-08-08T11:51:33;1.15;;;0.88;;
64351;SDS011;50680;52.626;-8.668;2023-08-08T11:54:02;1.42;;;0.90;;
64351;SDS011;50680;52.626;-8.668;2023-08-08T11:56:33;1.77;;;0.70;;
64351;SDS011;50680;52.626;-8.668;2023-08-08T11:59:01;1.25;;;0.80;;
64351;SDS011;50680;52.626;-8.668;2023-08-08T12:01:30;0.90;;;0.90;;
64351;SDS011;50680;52.626;-8.668;2023-08-08T12:03:58;2.28;;;1.10;;
64351;SDS011;50680;52.626;-8.668;2023-08-08T12:06:31;1.10;;;1.00;;
64351;SDS011;50680;52.626;-8.668;2023-08-08T12:08:57;1.27;;;0.90;;
64351;SDS011;50680;52.626;-8.668;2023-08-08T12:11:24;1.20;;;1.10;;
64351;SDS011;50680;52.626;-8.668;2023-08-08T12:13:58;2.60;;;1.00;;
64351;SDS011;50680;52.626;-8.668;2023-08-08T12:16:29;1.50;;;1.08;;
64351;SDS011;50680;52.626;-8.668;2023-08-08T12:19:03;1.20;;;1.10;;
64351;SDS011;50680;52.626;-8.668;2023-08-08T12:21:33;1.48;;;0.95;;
64351;SDS011;50680;52.626;-8.668;2023-08-08T12:24:01;0.90;;;0.77;;
64351;SDS011;50680;52.626;-8.668;2023-08-08T12:26:29;1.30;;;0.80;;
64351;SDS011;50680;52.626;-8.668;2023-08-08T12:28:56;1.15;;;0.77;;
64351;SDS011;50680;52.626;-8.668;2023-08-08T12:31:23;3.05;;;0.73;;
64351;SDS011;50680;52.626;-8.668;2023-08-08T12:33:50;1.15;;;0.80;;
64351;SDS011;50680;52.626;-8.668;2023-08-08T12:36:19;2.08;;;0.80;;
64351;SDS011;50680;52.626;-8.668;2023-08-08T12:38:46;0.95;;;0.70;;
64351;SDS011;50680;52.626;-8.668;2023-08-08T12:41:13;2.63;;;0.70;;
64351;SDS011;50680;52.626;-8.668;2023-08-08T12:43:40;2.92;;;0.80;;
64351;SDS011;50680;52.626;-8.668;2023-08-08T12:46:07;0.80;;;0.63;;
64351;SDS011;50680;52.626;-8.668;2023-08-08T12:48:34;1.75;;;0.70;;
64351;SDS011;50680;52.626;-8.668;2023-08-08T12:51:01;5.03;;;0.70;;
64351;SDS011;50680;52.626;-8.668;2023-08-08T12:53:28;1.80;;;0.70;;
64351;SDS011;50680;52.626;-8.668;2023-08-08T12:55:55;0.50;;;0.50;;
64351;SDS011;50680;52.626;-8.668;2023-08-08T12:58:22;0.82;;;0.60;;
64351;SDS011;50680;52.626;-8.668;2023-08-08T13:00:51;0.40;;;0.30;;
64351;SDS011;50680;52.626;-8.668;2023-08-08T13:03:18;0.30;;;0.30;;
64351;SDS011;50680;52.626;-8.668;2023-08-08T13:05:47;0.70;;;0.47;;
64351;SDS011;50680;52.626;-8.668;2023-08-08T13:08:14;0.73;;;0.35;;
64351;SDS011;50680;52.626;-8.668;2023-08-08T13:10:41;1.92;;;0.40;;
64351;SDS011;50680;52.626;-8.668;2023-08-08T13:13:08;0.77;;;0.40;;
64351;SDS011;50680;52.626;-8.668;2023-08-08T13:15:35;1.48;;;0.32;;
64351;SDS011;50680;52.626;-8.668;2023-08-08T13:18:02;0.30;;;0.30;;
64351;SDS011;50680;52.626;-8.668;2023-08-08T13:20:30;0.73;;;0.30;;
64351;SDS011;50680;52.626;-8.668;2023-08-08T13:22:57;0.50;;;0.30;;
64351;SDS011;50680;52.626;-8.668;2023-08-08T13:25:24;0.40;;;0.30;;
64351;SDS011;50680;52.626;-8.668;2023-08-08T13:27:51;0.47;;;0.30;;
64351;SDS011;50680;52.626;-8.668;2023-08-08T13:30:18;0.40;;;0.40;;
64351;SDS011;50680;52.626;-8.668;2023-08-08T13:32:48;0.40;;;0.30;;
64351;SDS011;50680;52.626;-8.668;2023-08-08T13:35:15;0.30;;;0.30;;
64351;SDS011;50680;52.626;-8.668;2023-08-08T13:37:42;0.73;;;0.35;;
64351;SDS011;50680;52.626;-8.668;2023-08-08T13:40:09;0.55;;;0.40;;
64351;SDS011;50680;52.626;-8.668;2023-08-08T13:42:36;0.77;;;0.30;;
64351;SDS011;50680;52.626;-8.668;2023-08-08T13:45:03;0.55;;;0.38;;
64351;SDS011;50680;52.626;-8.668;2023-08-08T13:47:31;0.82;;;0.50;;
64351;SDS011;50680;52.626;-8.668;2023-08-08T13:49:58;2.35;;;0.40;;
64351;SDS011;50680;52.626;-8.668;2023-08-08T13:52:25;1.40;;;0.30;;
64351;SDS011;50680;52.626;-8.668;2023-08-08T13:54:52;4.57;;;0.40;;
64351;SDS011;50680;52.626;-8.668;2023-08-08T13:57:20;0.90;;;0.30;;
64351;SDS011;50680;52.626;-8.668;2023-08-08T13:59:47;2.05;;;0.73;;
64351;SDS011;50680;52.626;-8.668;2023-08-08T14:02:14;0.55;;;0.30;;
64351;SDS011;50680;52.626;-8.668;2023-08-08T14:04:44;0.57;;;0.20;;
64351;SDS011;50680;52.626;-8.668;2023-08-08T14:07:11;1.67;;;0.30;;
64351;SDS011;50680;52.626;-8.668;2023-08-08T14:09:38;1.55;;;0.30;;
64351;SDS011;50680;52.626;-8.668;2023-08-08T14:12:05;0.32;;;0.20;;
64351;SDS011;50680;52.626;-8.668;2023-08-08T14:14:32;0.80;;;0.25;;
64351;SDS011;50680;52.626;-8.668;2023-08-08T14:16:59;0.20;;;0.20;;
64351;SDS011;50680;52.626;-8.668;2023-08-08T14:19:26;0.20;;;0.20;;
64351;SDS011;50680;52.626;-8.668;2023-08-08T14:21:53;0.10;;;0.10;;
64351;SDS011;50680;52.626;-8.668;2023-08-08T14:24:20;1.85;;;0.20;;
64351;SDS011;50680;52.626;-8.668;2023-08-08T14:26:46;1.85;;;0.32;;
64351;SDS011;50680;52.626;-8.668;2023-08-08T14:29:13;1.10;;;0.20;;
64351;SDS011;50680;52.626;-8.668;2023-08-08T14:31:40;0.95;;;0.20;;
64351;SDS011;50680;52.626;-8.668;2023-08-08T14:34:31;0.25;;;0.20;;
64351;SDS011;50680;52.626;-8.668;2023-08-08T14:36:59;0.20;;;0.15;;
64351;SDS011;50680;52.626;-8.668;2023-08-08T14:39:27;0.20;;;0.10;;